createdAt,value
2023-02-22T00:01:02.066Z,32.03
2023-02-22T00:03:32.515Z,29.70
2023-02-22T00:06:02.606Z,33.37
2023-02-22T00:08:31.642Z,32.27
2023-02-22T00:11:02.981Z,34.57
2023-02-22T00:13:30.184Z,29.57
2023-02-22T00:15:58.140Z,31.83
2023-02-22T00:18:27.842Z,27.63
2023-02-22T00:21:01.672Z,26.40
2023-02-22T00:23:30.376Z,28.67
2023-02-22T00:25:58.285Z,27.10
2023-02-22T00:28:24.800Z,32.57
2023-02-22T00:30:52.216Z,29.50
2023-02-22T00:33:18.716Z,27.50
2023-02-22T00:35:45.994Z,31.67
2023-02-22T00:38:14.853Z,32.77
2023-02-22T00:40:41.756Z,34.67
2023-02-22T00:43:08.489Z,38.57
2023-02-22T00:45:36.201Z,39.33
2023-02-22T00:48:04.918Z,45.40
2023-02-22T00:50:32.691Z,63.93
2023-02-22T00:53:01.329Z,38.83
2023-02-22T00:55:31.739Z,59.70
2023-02-22T00:57:59.228Z,80.10
2023-02-22T01:00:33.407Z,61.60
2023-02-22T01:03:00.143Z,56.40
2023-02-22T01:05:29.452Z,66.20
2023-02-22T01:07:57.548Z,55.77
2023-02-22T01:10:26.329Z,75.17
2023-02-22T01:12:54.485Z,51.20
2023-02-22T01:15:23.293Z,58.93
2023-02-22T01:17:52.086Z,69.13
2023-02-22T01:20:19.550Z,50.13
2023-02-22T01:22:49.383Z,63.03
2023-02-22T01:25:19.031Z,54.90
2023-02-22T01:27:45.696Z,71.77
2023-02-22T01:30:14.690Z,63.00
2023-02-22T01:32:42.466Z,63.37
2023-02-22T01:35:14.289Z,73.57
2023-02-22T01:37:42.017Z,83.90
2023-02-22T01:40:10.543Z,61.43
2023-02-22T01:42:37.267Z,68.20
2023-02-22T01:45:34.755Z,69.67
2023-02-22T01:48:21.408Z,57.37
2023-02-22T01:50:59.461Z,89.63
2023-02-22T01:53:59.709Z,86.23
2023-02-22T01:56:29.022Z,62.60
2023-02-22T01:59:03.322Z,40.03
2023-02-22T02:01:30.302Z,69.47
2023-02-22T02:03:59.825Z,54.13
2023-02-22T02:06:31.154Z,57.87
2023-02-22T02:09:04.732Z,74.53
2023-02-22T02:11:32.436Z,62.50
2023-02-22T02:13:59.065Z,54.43
2023-02-22T02:16:37.423Z,42.00
2023-02-22T02:19:12.595Z,79.83
2023-02-22T02:22:09.629Z,62.47
2023-02-22T02:24:57.578Z,68.23
2023-02-22T02:27:27.355Z,54.20
2023-02-22T02:29:59.883Z,50.73
2023-02-22T02:32:32.354Z,53.00
2023-02-22T02:35:07.980Z,97.17
2023-02-22T02:37:37.489Z,41.80
2023-02-22T02:40:11.471Z,53.33
2023-02-22T02:43:01.161Z,61.90
2023-02-22T02:45:36.277Z,51.30
2023-02-22T02:48:07.001Z,57.50
2023-02-22T02:50:43.701Z,80.10
2023-02-22T02:53:11.140Z,63.03
2023-02-22T02:55:38.197Z,52.63
2023-02-22T02:58:07.063Z,61.03
2023-02-22T03:00:39.405Z,60.13
2023-02-22T03:03:24.225Z,63.80
2023-02-22T03:05:59.798Z,62.93
2023-02-22T03:08:40.271Z,68.50
2023-02-22T03:11:16.862Z,51.97
2023-02-22T03:14:11.318Z,48.70
2023-02-22T03:16:52.722Z,53.70
2023-02-22T03:19:32.157Z,83.07
2023-02-22T03:22:04.592Z,94.80
2023-02-22T03:24:37.312Z,69.87
2023-02-22T03:27:09.678Z,75.83
2023-02-22T03:29:42.691Z,64.67
2023-02-22T03:32:15.789Z,65.73
2023-02-22T03:35:14.938Z,77.07
2023-02-22T03:37:45.344Z,52.57
2023-02-22T03:40:16.967Z,55.20
2023-02-22T03:42:48.739Z,82.93
2023-02-22T03:45:19.181Z,48.03
2023-02-22T03:47:52.550Z,64.23
2023-02-22T03:50:25.272Z,65.83
2023-02-22T03:52:52.529Z,38.37
2023-02-22T03:55:19.308Z,97.43
2023-02-22T03:57:52.259Z,179.67
2023-02-22T04:00:25.387Z,176.03
2023-02-22T04:02:51.915Z,195.07
2023-02-22T04:05:18.707Z,75.20
2023-02-22T04:07:45.834Z,162.20
2023-02-22T04:10:15.113Z,108.73
2023-02-22T04:12:41.606Z,197.93
2023-02-22T04:15:09.563Z,58.47
2023-02-22T04:17:35.991Z,82.50
2023-02-22T04:20:03.472Z,52.93
2023-02-22T04:22:29.963Z,80.40
2023-02-22T04:24:56.478Z,51.33
2023-02-22T04:27:22.870Z,83.87
2023-02-22T04:29:49.391Z,84.97
2023-02-22T04:32:16.412Z,181.40
2023-02-22T04:34:42.831Z,97.23
2023-02-22T04:37:10.369Z,90.57
2023-02-22T04:39:36.917Z,57.33
2023-02-22T04:42:03.532Z,76.43
2023-02-22T04:44:30.014Z,62.07
2023-02-22T04:46:57.495Z,64.77
2023-02-22T04:49:24.224Z,57.50
2023-02-22T04:51:50.639Z,43.10
2023-02-22T04:54:18.311Z,54.93
2023-02-22T04:56:45.297Z,91.93
2023-02-22T04:59:11.750Z,70.37
2023-02-22T05:01:38.868Z,61.77
2023-02-22T05:04:07.060Z,70.83
2023-02-22T05:06:34.070Z,129.77
2023-02-22T05:09:00.520Z,72.13
2023-02-22T05:11:26.967Z,54.07
2023-02-22T05:13:53.403Z,57.00
2023-02-22T05:16:19.915Z,71.57
2023-02-22T05:18:46.557Z,51.53
2023-02-22T05:21:13.598Z,48.97
2023-02-22T05:23:40.167Z,43.57
2023-02-22T05:26:06.633Z,34.57
2023-02-22T05:28:33.117Z,49.60
2023-02-22T05:30:59.632Z,41.47
2023-02-22T05:33:26.117Z,32.40
2023-02-22T05:35:52.649Z,30.90
2023-02-22T05:38:19.109Z,31.57
2023-02-22T05:40:45.617Z,30.37
2023-02-22T05:43:12.086Z,28.87
2023-02-22T05:45:38.618Z,30.80
2023-02-22T05:48:05.329Z,31.03
2023-02-22T05:50:33.075Z,29.70
2023-02-22T05:53:00.152Z,47.13
2023-02-22T05:55:26.894Z,27.20
2023-02-22T05:57:53.932Z,28.37
2023-02-22T06:00:27.801Z,26.57
2023-02-22T06:02:59.537Z,26.83
2023-02-22T06:05:27.067Z,28.90
2023-02-22T06:07:53.886Z,26.50
2023-02-22T06:10:20.742Z,29.13
2023-02-22T06:12:48.262Z,28.30
2023-02-22T06:15:19.649Z,26.10
2023-02-22T06:17:46.816Z,27.87
2023-02-22T06:20:16.754Z,25.27
2023-02-22T06:22:45.543Z,23.43
2023-02-22T06:25:15.876Z,25.50
2023-02-22T06:27:42.305Z,27.70
2023-02-22T06:30:13.143Z,24.00
2023-02-22T06:32:39.902Z,23.17
2023-02-22T06:35:07.084Z,24.73
2023-02-22T06:37:33.558Z,26.20
2023-02-22T06:40:04.862Z,21.10
2023-02-22T06:42:31.941Z,21.90
2023-02-22T06:44:58.354Z,19.87
2023-02-22T06:47:24.781Z,24.13
2023-02-22T06:49:55.914Z,21.70
2023-02-22T06:52:23.072Z,19.37
2023-02-22T06:54:50.461Z,21.67
2023-02-22T06:57:17.967Z,18.73
2023-02-22T06:59:44.593Z,16.13
2023-02-22T07:02:14.704Z,19.37
2023-02-22T07:04:43.410Z,19.03
2023-02-22T07:07:10.382Z,19.50
2023-02-22T07:09:36.843Z,20.17
2023-02-22T07:12:03.579Z,19.10
2023-02-22T07:14:30.014Z,24.00
2023-02-22T07:16:56.431Z,21.00
2023-02-22T07:19:23.559Z,23.40
2023-02-22T07:21:50.796Z,19.93
2023-02-22T07:24:17.245Z,29.23
2023-02-22T07:26:43.730Z,21.50
2023-02-22T07:29:11.309Z,22.10
2023-02-22T07:31:38.737Z,22.73
2023-02-22T07:34:05.536Z,23.27
2023-02-22T07:36:32.044Z,23.90
2023-02-22T07:38:58.437Z,22.07
2023-02-22T07:41:25.670Z,25.37
2023-02-22T07:43:52.240Z,20.90
2023-02-22T07:46:18.763Z,23.80
2023-02-22T07:48:45.191Z,24.57
2023-02-22T07:51:15.725Z,23.40
2023-02-22T07:53:42.456Z,28.07
2023-02-22T07:56:08.934Z,26.10
2023-02-22T07:58:35.503Z,27.57
2023-02-22T08:01:05.045Z,24.83
2023-02-22T08:03:36.413Z,24.47
2023-02-22T08:06:04.982Z,26.47
2023-02-22T08:08:31.701Z,26.00
2023-02-22T08:10:58.187Z,25.97
2023-02-22T08:13:24.632Z,26.20
2023-02-22T08:15:53.743Z,29.43
2023-02-22T08:18:21.715Z,30.03
2023-02-22T08:20:50.344Z,26.70
2023-02-22T08:23:17.973Z,28.70
2023-02-22T08:25:45.156Z,31.03
2023-02-22T08:28:15.155Z,31.27
2023-02-22T08:30:45.465Z,27.77
2023-02-22T08:33:15.835Z,34.10
2023-02-22T08:35:42.810Z,32.23
2023-02-22T08:38:17.487Z,30.93
2023-02-22T08:40:43.966Z,30.50
2023-02-22T08:43:10.452Z,34.87
2023-02-22T08:45:37.262Z,34.27
2023-02-22T08:48:04.000Z,31.33
2023-02-22T08:50:33.697Z,33.50
2023-02-22T08:53:02.350Z,38.57
2023-02-22T08:55:32.264Z,38.77
2023-02-22T08:58:01.366Z,34.40
2023-02-22T09:00:29.567Z,35.93
2023-02-22T09:02:56.158Z,40.30
2023-02-22T09:05:22.642Z,33.90
2023-02-22T09:07:49.207Z,32.07
2023-02-22T09:10:24.357Z,35.80
2023-02-22T09:12:58.330Z,33.10
2023-02-22T09:15:25.639Z,29.60
2023-02-22T09:17:53.137Z,38.00
2023-02-22T09:20:21.474Z,34.57
2023-02-22T09:22:49.249Z,29.83
2023-02-22T09:25:17.789Z,31.87
2023-02-22T09:27:47.894Z,30.30
2023-02-22T09:30:28.095Z,31.43
2023-02-22T09:33:00.239Z,30.70
2023-02-22T09:35:27.698Z,32.50
2023-02-22T09:37:59.530Z,32.70
2023-02-22T09:40:32.369Z,30.57
2023-02-22T09:43:14.226Z,37.70
2023-02-22T09:45:48.846Z,36.40
2023-02-22T09:48:22.181Z,29.50
2023-02-22T09:50:52.822Z,30.10
2023-02-22T09:53:32.415Z,28.00
2023-02-22T09:56:04.586Z,29.10
2023-02-22T09:58:33.361Z,29.57
2023-02-22T10:01:27.174Z,33.53
2023-02-22T10:04:44.947Z,27.73
2023-02-22T10:07:30.833Z,31.80
2023-02-22T10:09:58.640Z,32.03
2023-02-22T10:12:27.903Z,30.50
2023-02-22T10:15:31.169Z,36.37
2023-02-22T10:18:13.569Z,32.87
2023-02-22T10:21:02.543Z,32.10
2023-02-22T10:24:02.192Z,30.33
2023-02-22T10:26:36.681Z,31.53
2023-02-22T10:29:39.951Z,33.13
2023-02-22T10:32:16.495Z,27.27
2023-02-22T10:34:48.566Z,28.90
2023-02-22T10:37:26.032Z,26.80
2023-02-22T10:40:17.457Z,28.63
2023-02-22T10:42:44.794Z,26.40
2023-02-22T10:45:21.742Z,30.40
2023-02-22T10:47:49.839Z,26.70
2023-02-22T10:50:16.705Z,32.43
2023-02-22T10:52:43.334Z,27.37
2023-02-22T10:55:15.969Z,30.10
2023-02-22T10:57:46.959Z,31.50
2023-02-22T11:00:14.283Z,26.73
2023-02-22T11:02:52.449Z,30.00
2023-02-22T11:05:37.241Z,29.23
2023-02-22T11:08:22.571Z,23.33
2023-02-22T11:10:53.223Z,25.00
2023-02-22T11:13:31.086Z,20.17
2023-02-22T11:16:17.598Z,18.80
2023-02-22T11:18:44.433Z,20.73
2023-02-22T11:21:13.886Z,18.63
2023-02-22T11:23:44.931Z,20.37
2023-02-22T11:26:14.462Z,18.83
2023-02-22T11:28:51.009Z,18.43
2023-02-22T11:31:24.266Z,18.80
2023-02-22T11:36:42.701Z,19.33
2023-02-22T11:39:26.903Z,17.20
2023-02-22T11:41:55.772Z,19.37
2023-02-22T11:44:29.529Z,19.73
2023-02-22T11:47:06.998Z,19.87
2023-02-22T11:49:39.856Z,18.57
2023-02-22T11:52:17.592Z,19.77
2023-02-22T11:54:53.460Z,18.87
2023-02-22T11:57:26.108Z,18.17
2023-02-22T12:00:16.091Z,20.43
2023-02-22T12:03:04.826Z,21.50
2023-02-22T12:05:59.405Z,20.83
2023-02-22T12:08:41.143Z,22.60
2023-02-22T12:11:13.851Z,20.97
2023-02-22T12:14:07.686Z,18.60
2023-02-22T12:16:57.868Z,25.00
2023-02-22T12:19:39.403Z,25.20
2023-02-22T12:22:12.134Z,19.10
2023-02-22T12:24:48.888Z,24.83
2023-02-22T12:27:31.581Z,19.20
2023-02-22T12:30:23.620Z,17.90
2023-02-22T12:32:59.045Z,23.60
2023-02-22T12:35:34.802Z,17.67
2023-02-22T12:38:16.519Z,18.83
2023-02-22T12:40:45.877Z,18.43
2023-02-22T12:43:26.986Z,17.03
2023-02-22T12:46:05.324Z,16.83
2023-02-22T12:48:51.814Z,22.00
2023-02-22T12:51:31.614Z,21.33
2023-02-22T12:54:19.043Z,20.63
2023-02-22T12:56:55.537Z,17.90
2023-02-22T12:59:48.923Z,18.80
2023-02-22T13:02:22.488Z,22.40
2023-02-22T13:04:49.150Z,16.30
2023-02-22T13:07:33.370Z,21.87
2023-02-22T13:10:06.579Z,19.27
2023-02-22T13:13:03.857Z,19.83
2023-02-22T13:15:40.781Z,20.80
2023-02-22T13:18:18.285Z,18.10
2023-02-22T13:20:57.284Z,18.80
2023-02-22T13:23:39.125Z,20.03
2023-02-22T13:26:22.071Z,21.37
2023-02-22T13:29:15.796Z,19.13
2023-02-22T13:31:45.230Z,21.57
2023-02-22T13:34:16.498Z,21.47
2023-02-22T13:36:58.170Z,17.77
2023-02-22T13:39:37.001Z,18.10
2023-02-22T13:42:25.115Z,22.53
2023-02-22T13:45:04.076Z,18.30
2023-02-22T13:48:00.888Z,19.93
2023-02-22T13:50:30.382Z,19.13
2023-02-22T13:52:58.106Z,22.90
2023-02-22T13:55:31.456Z,18.97
2023-02-22T13:58:16.411Z,19.30
2023-02-22T14:00:51.122Z,22.00
2023-02-22T14:03:35.915Z,20.97
2023-02-22T14:06:07.797Z,18.50
2023-02-22T14:08:34.172Z,26.03
2023-02-22T14:11:32.522Z,22.20
2023-02-22T14:14:00.910Z,18.30
2023-02-22T14:16:30.091Z,20.57
2023-02-22T14:19:13.229Z,17.87
2023-02-22T14:21:58.333Z,20.10
2023-02-22T14:24:24.957Z,19.10
2023-02-22T14:27:03.949Z,19.20
2023-02-22T14:29:31.078Z,19.37
2023-02-22T14:32:07.445Z,19.13
2023-02-22T14:34:44.281Z,18.40
2023-02-22T14:37:27.968Z,23.53
2023-02-22T14:39:57.763Z,17.23
2023-02-22T14:42:31.961Z,16.97
2023-02-22T14:45:20.197Z,20.30
2023-02-22T14:48:13.906Z,25.13
2023-02-22T14:50:40.326Z,18.80
2023-02-22T14:53:06.956Z,18.90
2023-02-22T14:55:41.072Z,18.70
2023-02-22T14:58:20.592Z,21.60
2023-02-22T15:00:56.864Z,27.03
2023-02-22T15:03:38.543Z,21.60
2023-02-22T15:06:15.739Z,24.10
2023-02-22T15:08:48.593Z,27.70
2023-02-22T15:11:32.442Z,21.73
2023-02-22T15:14:00.804Z,19.80
2023-02-22T15:16:31.659Z,23.83
2023-02-22T15:19:00.843Z,16.50
2023-02-22T15:21:29.705Z,18.00
2023-02-22T15:24:00.360Z,19.63
2023-02-22T15:26:35.218Z,17.50
2023-02-22T15:29:04.208Z,19.13
2023-02-22T15:31:36.219Z,22.83
2023-02-22T15:34:15.863Z,22.63
2023-02-22T15:36:44.672Z,18.10
2023-02-22T15:39:29.356Z,19.97
2023-02-22T15:42:23.036Z,19.10
2023-02-22T15:44:58.045Z,17.23
2023-02-22T15:47:27.501Z,22.93
2023-02-22T15:50:26.555Z,21.23
2023-02-22T15:53:01.808Z,18.33
2023-02-22T15:55:35.413Z,17.50
2023-02-22T15:58:10.872Z,17.53
2023-02-22T16:00:43.375Z,20.80
2023-02-22T16:03:13.364Z,18.83
2023-02-22T16:05:47.160Z,21.63
2023-02-22T16:08:26.712Z,20.20
2023-02-22T16:11:00.502Z,27.53
2023-02-22T16:13:32.772Z,20.30
2023-02-22T16:16:05.805Z,20.20
2023-02-22T16:18:36.249Z,27.33
2023-02-22T16:21:13.867Z,19.60
2023-02-22T16:23:49.461Z,20.87
2023-02-22T16:26:31.191Z,20.40
2023-02-22T16:28:59.342Z,22.73
2023-02-22T16:31:37.785Z,19.00
2023-02-22T16:34:06.697Z,23.17
2023-02-22T16:36:47.593Z,21.63
2023-02-22T16:39:22.388Z,23.07
2023-02-22T16:41:51.100Z,19.90
2023-02-22T16:44:17.779Z,19.77
2023-02-22T16:46:44.391Z,20.83
2023-02-22T16:49:12.342Z,21.43
2023-02-22T16:51:49.352Z,24.20
2023-02-22T16:54:23.936Z,18.57
2023-02-22T16:56:51.174Z,21.03
2023-02-22T16:59:18.335Z,20.80
2023-02-22T17:01:45.062Z,20.30
2023-02-22T17:04:22.185Z,23.93
2023-02-22T17:06:48.910Z,21.00
2023-02-22T17:09:15.708Z,20.90
2023-02-22T17:11:43.688Z,23.30
2023-02-22T17:14:16.195Z,22.33
2023-02-22T17:16:43.026Z,20.97
2023-02-22T17:19:16.808Z,23.20
2023-02-22T17:21:43.362Z,22.30
2023-02-22T17:24:14.809Z,23.80
2023-02-22T17:26:41.594Z,24.47
2023-02-22T17:29:08.173Z,22.07
2023-02-22T17:31:35.249Z,22.90
2023-02-22T17:34:04.492Z,20.80
2023-02-22T17:36:32.271Z,24.50
2023-02-22T17:38:59.573Z,22.93
2023-02-22T17:41:26.449Z,22.67
2023-02-22T17:43:54.317Z,23.40
2023-02-22T17:46:21.139Z,23.90
2023-02-22T17:48:50.578Z,28.20
2023-02-22T17:51:17.355Z,25.57
2023-02-22T17:53:43.844Z,22.80
2023-02-22T17:56:18.733Z,23.17
2023-02-22T17:58:47.072Z,24.63
2023-02-22T18:01:20.930Z,27.47
2023-02-22T18:03:47.673Z,26.57
2023-02-22T18:06:22.485Z,23.40
2023-02-22T18:08:55.791Z,27.97
2023-02-22T18:11:26.367Z,24.53
2023-02-22T18:13:55.419Z,24.77
2023-02-22T18:16:22.551Z,24.30
2023-02-22T18:18:49.730Z,26.57
2023-02-22T18:21:16.391Z,24.10
2023-02-22T18:23:44.815Z,23.03
2023-02-22T18:26:17.367Z,24.87
2023-02-22T18:28:44.548Z,30.30
2023-02-22T18:31:14.497Z,25.20
2023-02-22T18:33:46.625Z,26.20
2023-02-22T18:36:14.408Z,23.47
2023-02-22T18:38:43.133Z,38.83
2023-02-22T18:41:15.387Z,28.50
2023-02-22T18:43:42.258Z,28.30
2023-02-22T18:46:11.129Z,34.57
2023-02-22T18:48:38.615Z,30.23
2023-02-22T18:51:08.857Z,28.07
2023-02-22T18:53:37.082Z,36.47
2023-02-22T18:56:08.702Z,25.10
2023-02-22T18:58:35.946Z,34.50
2023-02-22T19:01:03.530Z,31.33
2023-02-22T19:03:30.368Z,27.60
2023-02-22T19:06:01.692Z,27.30
2023-02-22T19:08:28.530Z,31.20
2023-02-22T19:10:54.990Z,27.33
2023-02-22T19:13:21.431Z,28.40
2023-02-22T19:15:48.909Z,28.60
2023-02-22T19:18:15.395Z,29.37
2023-02-22T19:20:41.938Z,28.20
2023-02-22T19:23:10.459Z,33.03
2023-02-22T19:25:41.084Z,31.90
2023-02-22T19:28:07.605Z,36.50
2023-02-22T19:30:34.110Z,29.73
2023-02-22T19:33:04.263Z,30.90
2023-02-22T19:35:30.867Z,30.70
2023-02-22T19:37:58.131Z,33.00
2023-02-22T19:40:24.773Z,31.50
2023-02-22T19:42:51.999Z,33.17
2023-02-22T19:45:20.124Z,29.13
2023-02-22T19:47:47.466Z,39.00
2023-02-22T19:50:14.869Z,31.03
2023-02-22T19:52:41.775Z,32.03
2023-02-22T19:55:14.733Z,29.03
2023-02-22T19:57:43.262Z,29.07
2023-02-22T20:00:13.194Z,29.63
2023-02-22T20:02:40.770Z,34.27
2023-02-22T20:05:10.284Z,31.20
2023-02-22T20:07:38.325Z,29.30
2023-02-22T20:10:07.085Z,34.20
2023-02-22T20:12:33.910Z,34.97
2023-02-22T20:15:00.486Z,34.83
2023-02-22T20:17:27.590Z,31.40
2023-02-22T20:19:54.281Z,34.60
2023-02-22T20:22:21.900Z,38.30
2023-02-22T20:24:49.204Z,34.27
2023-02-22T20:27:16.430Z,33.70
2023-02-22T20:29:42.932Z,35.90
2023-02-22T20:32:12.128Z,33.87
2023-02-22T20:34:38.747Z,36.27
2023-02-22T20:37:05.214Z,38.97
2023-02-22T20:39:31.699Z,38.50
2023-02-22T20:42:00.609Z,37.20
2023-02-22T20:44:27.361Z,36.97
2023-02-22T20:46:53.862Z,33.90
2023-02-22T20:49:21.270Z,40.60
2023-02-22T20:51:48.348Z,37.90
2023-02-22T20:54:15.661Z,39.30
2023-02-22T20:56:44.583Z,39.97
2023-02-22T20:59:13.841Z,39.10
2023-02-22T21:01:40.817Z,38.07
2023-02-22T21:04:10.051Z,36.70
2023-02-22T21:06:38.892Z,38.83
2023-02-22T21:09:10.273Z,46.80
2023-02-22T21:11:38.964Z,40.70
2023-02-22T21:14:05.554Z,40.37
2023-02-22T21:16:35.405Z,41.90
2023-02-22T21:19:04.879Z,41.07
2023-02-22T21:21:31.950Z,43.93
2023-02-22T21:24:01.681Z,46.77
2023-02-22T21:26:31.358Z,40.50
2023-02-22T21:29:00.836Z,45.87
2023-02-22T21:31:28.132Z,45.57
2023-02-22T21:33:56.147Z,43.80
2023-02-22T21:36:26.946Z,45.10
2023-02-22T21:38:59.054Z,41.90
2023-02-22T21:41:29.083Z,44.00
2023-02-22T21:43:57.626Z,43.03
2023-02-22T21:46:26.021Z,48.13
2023-02-22T21:48:52.556Z,49.67
2023-02-22T21:51:25.388Z,43.73
2023-02-22T21:53:54.403Z,45.90
2023-02-22T21:56:27.303Z,44.53
2023-02-22T21:59:04.833Z,47.10
2023-02-22T22:01:34.767Z,44.20
2023-02-22T22:04:02.471Z,48.57
2023-02-22T22:06:31.332Z,48.30
2023-02-22T22:08:59.944Z,46.80
2023-02-22T22:11:26.517Z,52.37
2023-02-22T22:13:57.588Z,46.30
2023-02-22T22:16:27.179Z,53.83
2023-02-22T22:18:55.007Z,48.13
2023-02-22T22:21:23.093Z,46.00
2023-02-22T22:23:54.335Z,49.40
2023-02-22T22:26:24.465Z,50.53
2023-02-22T22:28:55.904Z,50.87
2023-02-22T22:31:24.018Z,46.40
2023-02-22T22:33:50.794Z,50.57
2023-02-22T22:36:19.094Z,51.60
2023-02-22T22:38:48.454Z,47.57
2023-02-22T22:41:17.692Z,48.03
2023-02-22T22:43:48.152Z,46.00
2023-02-22T22:46:17.265Z,50.90
2023-02-22T22:48:46.918Z,53.73
2023-02-22T22:51:20.056Z,53.40
2023-02-22T22:53:48.531Z,48.87
2023-02-22T22:56:25.904Z,50.97
2023-02-22T22:58:57.626Z,49.80
2023-02-22T23:01:33.738Z,52.50
2023-02-22T23:04:06.345Z,53.97
2023-02-22T23:06:41.786Z,51.80
2023-02-22T23:09:21.759Z,53.73
2023-02-22T23:11:55.057Z,51.80
2023-02-22T23:14:24.361Z,54.50
2023-02-22T23:16:53.507Z,52.07
2023-02-22T23:19:20.375Z,52.63
2023-02-22T23:21:49.562Z,55.53
2023-02-22T23:24:19.230Z,56.53
2023-02-22T23:26:49.059Z,51.63
2023-02-22T23:29:17.497Z,51.70
2023-02-22T23:31:44.170Z,50.27
2023-02-22T23:34:13.932Z,53.50
2023-02-22T23:36:49.642Z,57.77
2023-02-22T23:39:20.619Z,56.60
2023-02-22T23:41:54.360Z,50.27
2023-02-22T23:44:21.976Z,53.70
2023-02-22T23:46:49.620Z,50.73
2023-02-22T23:49:20.332Z,48.67
2023-02-22T23:51:48.027Z,56.33
2023-02-22T23:54:19.264Z,51.90
2023-02-22T23:57:02.369Z,53.10
2023-02-22T23:59:30.543Z,54.43
